Time;durP1;ratioP1;P1;durP2;ratioP2;P2;SDS_P1;SDS_P2;PMS_P1;PMS_P2;Temp;Humidity;BMP_temperature;BMP_pressure;BME280_temperature;BME280_humidity;BME280_pressure;Samples;Min_cycle;Max_cycle;Signal;HPM_P1;HPM_P2
2022/02/02 00:30:47;;;;;;;30.05;4.03;;;;;;;8.78;61.80;99595.50;5110629;23;99638;-80
2022/02/02 00:33:23;;;;;;;31.95;4.15;;;;;;;8.60;62.79;99593.72;4939024;28;96615;-80
2022/02/02 00:36:00;;;;;;;31.92;4.43;;;;;;;8.98;61.34;99591.94;4942597;28;96695;-80
2022/02/02 00:38:27;;;;;;;22.75;3.58;;;;;;;8.61;62.42;99580.47;4933380;28;98636;-81
2022/02/02 00:41:06;;;;;;;31.10;4.22;;;;;;;8.61;62.46;99592.78;4933204;28;98318;-80
2022/02/02 00:43:39;;;;;;;40.22;4.28;;;;;;;8.62;61.46;99584.81;4933921;28;96850;-79
2022/02/02 00:46:10;;;;;;;34.97;3.90;;;;;;;8.43;61.60;99575.19;4944037;28;96790;-80
2022/02/02 00:48:49;;;;;;;26.30;3.45;;;;;;;8.46;61.78;99583.81;4926200;28;97212;-82
2022/02/02 00:51:24;;;;;;;35.17;4.20;;;;;;;8.81;60.66;99592.72;4940852;28;100180;-80
2022/02/02 00:53:57;;;;;;;21.92;3.25;;;;;;;8.75;60.74;99587.75;4934958;28;96757;-81
2022/02/02 00:56:23;;;;;;;35.83;4.55;;;;;;;8.93;59.82;99589.50;4923310;28;96870;-79
2022/02/02 00:58:52;;;;;;;39.15;4.55;;;;;;;8.77;59.43;99599.06;4924056;28;98112;-81
2022/02/02 01:02:07;;;;;;;;;;;;;;;;;;;;;
2022/02/02 01:11:19;;;;;;;35.28;5.28;;;;;;;8.96;58.71;99599.06;4818750;28;97359;-83
2022/02/02 01:21:07;;;;;;;30.33;5.25;;;;;;;9.05;57.92;99610.03;4905423;28;96880;-82
2022/02/02 01:30:17;;;;;;;31.30;4.57;;;;;;;8.61;58.67;99622.59;4917792;28;96762;-82
2022/02/02 01:33:37;;;;;;;33.47;5.03;;;;;;;8.56;58.92;99629.00;4913226;28;96909;-82
2022/02/02 01:43:20;;;;;;;30.48;4.03;;;;;;;8.71;58.05;99641.50;4889286;28;96960;-80
2022/02/02 01:46:43;;;;;;;;;;;;;;;;;;;;;
2022/02/02 01:54:54;;;;;;;36.45;5.60;;;;;;;8.70;58.69;99627.47;4931043;28;97014;-77
2022/02/02 01:57:43;;;;;;;38.20;3.95;;;;;;;8.57;59.28;99623.69;4937620;28;96903;-78
2022/02/02 02:00:11;;;;;;;27.55;3.83;;;;;;;8.82;59.01;99633.09;4945793;28;101627;-78
2022/02/02 02:02:38;;;;;;;32.28;4.38;;;;;;;8.48;59.40;99628.50;4949369;28;97238;-78
2022/02/02 02:05:06;;;;;;;24.10;3.72;;;;;;;8.15;61.09;99630.78;4946055;28;96565;-77
2022/02/02 02:07:35;;;;;;;29.27;3.72;;;;;;;8.30;60.20;99641.56;4934943;28;96794;-77
2022/02/02 02:10:01;;;;;;;32.70;4.97;;;;;;;8.39;59.79;99635.91;4926699;28;99922;-77
2022/02/02 02:12:37;;;;;;;28.42;4.18;;;;;;;8.35;60.13;99634.28;4932295;28;98908;-77
2022/02/02 02:15:07;;;;;;;28.15;4.45;;;;;;;8.83;58.89;99640.94;4934219;28;98595;-78
2022/02/02 02:17:33;;;;;;;35.65;5.00;;;;;;;8.55;59.68;99638.69;4934762;28;97646;-77
2022/02/02 02:20:00;;;;;;;30.70;3.95;;;;;;;8.30;60.58;99638.03;4929270;28;100480;-79
2022/02/02 02:22:33;;;;;;;33.97;4.00;;;;;;;8.75;59.24;99656.22;4932845;28;98883;-79
2022/02/02 02:24:59;;;;;;;26.65;3.55;;;;;;;8.57;59.69;99650.00;4933305;28;98631;-77
2022/02/02 02:27:26;;;;;;;32.53;3.72;;;;;;;8.84;59.53;99657.59;4934170;28;96888;-77
2022/02/02 02:30:12;;;;;;;24.70;3.58;;;;;;;8.80;59.90;99664.75;4928183;28;99394;-77
2022/02/02 02:33:15;;;;;;;31.33;4.40;;;;;;;8.95;59.23;99656.16;4927657;28;99699;-77
2022/02/02 02:36:21;;;;;;;29.73;4.18;;;;;;;8.69;60.53;99669.66;4933299;28;97366;-78
2022/02/02 02:39:19;;;;;;;26.25;3.67;;;;;;;8.24;62.21;99662.84;4933917;28;99081;-76
2022/02/02 02:58:17;;;;;;;35.03;4.60;;;;;;;8.74;60.99;99675.56;4942453;28;96918;-78
2022/02/02 03:01:08;;;;;;;31.10;4.47;;;;;;;8.80;60.70;99689.31;4933096;28;98118;-77
2022/02/02 03:31:22;;;;;;;49.15;5.88;;;;;;;8.94;60.19;99686.06;5050958;27;97119;-77
2022/02/02 03:56:32;;;;;;;60.08;7.25;;;;;;;8.23;62.26;99695.34;5028703;27;97571;-78
2022/02/02 03:59:23;;;;;;;51.72;5.80;;;;;;;8.88;60.53;99696.88;5049141;27;99338;-77
2022/02/02 04:02:12;;;;;;;36.42;5.70;;;;;;;8.98;60.91;99697.34;5043105;27;96739;-77
2022/02/02 04:04:48;;;;;;;51.22;7.07;;;;;;;8.62;61.63;99694.56;5044364;27;96657;-78
2022/02/02 04:07:21;;;;;;;38.60;4.90;;;;;;;8.40;62.22;99727.06;5047915;27;100833;-78
2022/02/02 04:09:48;;;;;;;44.92;6.20;;;;;;;8.59;61.62;99721.03;5049464;27;98276;-79
2022/02/02 04:12:25;;;;;;;48.80;6.32;;;;;;;8.54;61.63;99723.00;5049997;27;96639;-77
2022/02/02 04:17:49;;;;;;;49.55;6.38;;;;;;;8.75;60.30;99724.69;5044584;27;99098;-77
2022/02/02 04:56:19;;;;;;;44.17;5.80;;;;;;;8.70;56.18;99740.72;5038425;28;98526;-78
2022/02/02 04:58:56;;;;;;;29.27;4.50;;;;;;;8.20;56.99;99744.63;5051017;28;96649;-78
2022/02/02 05:04:27;;;;;;;33.75;4.50;;;;;;;8.30;56.50;99731.03;5039649;28;97058;-76
2022/02/02 05:06:58;;;;;;;44.53;4.80;;;;;;;8.53;55.63;99755.53;5033616;28;96762;-79
2022/02/02 05:09:37;;;;;;;36.00;4.90;;;;;;;8.21;56.75;99754.19;5037635;28;96984;-77
2022/02/02 05:17:50;;;;;;;25.75;4.43;;;;;;;8.51;55.38;99786.34;5036426;28;96792;-78
2022/02/02 05:20:48;;;;;;;47.25;4.57;;;;;;;8.86;55.27;99785.66;5032777;28;99062;-78
2022/02/02 05:43:13;;;;;;;34.65;5.35;;;;;;;8.00;57.25;99821.72;5012607;27;97287;-79
2022/02/02 05:53:36;;;;;;;46.65;7.47;;;;;;;8.69;55.16;99854.03;5044855;27;96804;-78
2022/02/02 05:56:05;;;;;;;29.58;4.45;;;;;;;8.92;54.51;99853.06;5052914;27;100597;-78
2022/02/02 05:58:37;;;;;;;30.58;3.90;;;;;;;8.61;54.88;99850.84;5035190;28;97496;-79
2022/02/02 06:01:10;;;;;;;34.28;4.00;;;;;;;8.49;55.41;99859.25;5025332;28;97469;-78
2022/02/02 06:03:50;;;;;;;39.58;4.82;;;;;;;8.82;54.87;99860.50;5028280;28;96700;-79
2022/02/02 06:06:17;;;;;;;38.90;4.70;;;;;;;8.75;54.99;99869.56;5026288;28;101938;-78
2022/02/02 06:08:48;;;;;;;35.13;4.28;;;;;;;8.12;56.70;99865.97;5028434;28;98172;-78
2022/02/02 06:11:16;;;;;;;29.58;3.72;;;;;;;8.57;56.09;99871.19;5029213;28;97143;-77
2022/02/02 06:13:46;;;;;;;23.42;3.90;;;;;;;8.30;56.95;99873.16;5028895;28;97909;-78
2022/02/02 06:16:15;;;;;;;29.10;3.58;;;;;;;8.77;55.24;99870.38;5026454;28;98801;-78
2022/02/02 06:18:43;;;;;;;32.28;4.53;;;;;;;8.40;56.67;99873.69;5029097;27;98761;-78
2022/02/02 06:21:12;;;;;;;21.08;3.53;;;;;;;8.59;56.61;99871.16;5031537;28;96691;-79
2022/02/02 06:23:43;;;;;;;23.58;4.15;;;;;;;8.54;56.17;99865.19;5035524;28;96742;-77
2022/02/02 06:26:15;;;;;;;28.85;4.00;;;;;;;8.56;56.34;99881.78;5030834;28;96921;-77
2022/02/02 06:28:44;;;;;;;28.75;4.07;;;;;;;8.65;56.44;99870.88;5025555;28;99074;-77
2022/02/02 06:31:13;;;;;;;35.20;4.28;;;;;;;8.14;57.21;99866.75;5026026;28;96945;-78
2022/02/02 06:33:42;;;;;;;33.88;3.92;;;;;;;7.92;58.06;99884.31;5023089;27;98187;-77
2022/02/02 06:36:11;;;;;;;34.13;3.97;;;;;;;8.01;57.73;99878.66;5027645;28;99583;-78
2022/02/02 06:38:39;;;;;;;21.77;3.67;;;;;;;8.37;56.73;99895.69;5031608;28;98088;-78
2022/02/02 06:41:07;;;;;;;22.67;3.58;;;;;;;8.59;55.77;99884.31;5027077;27;96781;-77
2022/02/02 06:43:35;;;;;;;29.30;3.90;;;;;;;8.35;56.61;99894.91;5029341;28;98110;-80
2022/02/02 06:46:03;;;;;;;32.60;3.63;;;;;;;8.50;55.60;99911.00;5022196;28;97660;-77
2022/02/02 06:48:34;;;;;;;23.63;3.35;;;;;;;8.87;55.35;99913.84;5023220;27;98866;-77
2022/02/02 06:51:10;;;;;;;29.98;4.28;;;;;;;8.99;54.48;99910.69;5022619;28;98402;-79
2022/02/02 06:53:54;;;;;;;31.52;3.97;;;;;;;8.79;54.96;99918.59;5025403;28;97250;-77
2022/02/02 06:56:33;;;;;;;26.30;3.45;;;;;;;8.60;55.10;99921.09;5027863;28;98844;-79
2022/02/02 06:59:15;;;;;;;28.33;4.00;;;;;;;9.01;54.26;99931.72;5027958;28;98177;-77
2022/02/02 07:02:19;;;;;;;33.80;4.18;;;;;;;8.88;54.05;99934.00;5021338;28;97519;-78
2022/02/02 07:05:11;;;;;;;31.45;4.43;;;;;;;8.27;55.51;99949.56;5023993;28;96838;-79
2022/02/02 07:08:07;;;;;;;32.50;3.90;;;;;;;8.81;54.85;99943.06;5026161;28;98324;-77
2022/02/02 07:10:48;;;;;;;31.73;4.80;;;;;;;9.00;54.30;99949.28;5025950;28;101510;-78
2022/02/02 07:13:27;;;;;;;30.33;4.43;;;;;;;9.06;53.57;99945.53;5028699;28;96881;-77
2022/02/02 07:16:10;;;;;;;31.05;4.07;;;;;;;9.13;54.29;99955.75;5029193;28;96771;-77
2022/02/02 07:18:53;;;;;;;26.77;3.47;;;;;;;8.95;54.85;99950.41;5049794;27;97651;-80
2022/02/02 07:21:36;;;;;;;32.35;4.75;;;;;;;8.74;55.29;99973.22;5041837;28;98019;-76
2022/02/02 07:24:28;;;;;;;26.20;3.30;;;;;;;8.98;54.99;99971.38;5026035;27;97213;-78
2022/02/02 07:46:26;;;;;;;27.65;3.20;;;;;;;8.58;54.97;99995.81;5120519;22;96985;-79
2022/02/02 07:49:09;;;;;;;37.65;5.68;;;;;;;8.39;55.69;99993.91;5009461;28;96918;-78
2022/02/02 07:51:38;;;;;;;26.88;4.28;;;;;;;8.29;55.71;99989.88;5008850;28;99556;-78
2022/02/02 07:54:09;;;;;;;22.38;3.67;;;;;;;8.99;54.29;99999.44;5005263;28;98982;-79
2022/02/02 07:56:54;;;;;;;23.02;3.60;;;;;;;9.71;52.30;100016.59;5001524;28;97128;-80
2022/02/02 07:59:40;;;;;;;31.40;3.20;;;;;;;9.35;53.19;100020.78;5013869;28;97265;-82
2022/02/02 08:02:27;;;;;;;21.10;2.73;;;;;;;8.91;53.77;100026.09;5021163;28;98900;-79
2022/02/02 08:05:18;;;;;;;32.80;4.53;;;;;;;9.58;52.13;100025.94;5027567;28;99562;-80
2022/02/02 08:08:07;;;;;;;35.00;4.45;;;;;;;9.02;52.71;100044.09;5039847;27;96842;-79
2022/02/02 08:10:37;;;;;;;22.63;3.25;;;;;;;9.07;53.50;100048.25;5039320;27;96665;-79
2022/02/02 08:13:10;;;;;;;30.48;4.85;;;;;;;8.67;55.16;100074.44;5036653;27;98271;-78
2022/02/02 08:15:36;;;;;;;24.15;4.10;;;;;;;8.80;55.01;100067.78;5034109;28;97471;-78
2022/02/02 08:18:15;;;;;;;22.25;3.05;;;;;;;9.34;54.18;100071.78;5028702;28;96475;-79
2022/02/02 08:20:42;;;;;;;26.38;2.83;;;;;;;9.71;53.58;100063.22;5023053;28;97644;-78
2022/02/02 08:23:08;;;;;;;21.48;2.53;;;;;;;9.41;54.18;100082.03;5018125;28;101324;-76
2022/02/02 08:28:18;;;;;;;23.92;3.97;;;;;;;8.68;55.36;100084.06;5007321;28;97901;-78
2022/02/02 08:31:13;;;;;;;23.02;4.95;;;;;;;9.12;53.57;100085.00;5025230;27;96726;-81
2022/02/02 08:33:56;;;;;;;23.38;2.80;;;;;;;9.55;51.82;100084.09;5109809;22;98663;-80
2022/02/02 08:36:33;;;;;;;;;;;;;;;;;;;;;
2022/02/02 08:39:13;;;;;;;20.75;2.53;;;;;;;8.75;53.48;100101.38;5031366;27;112901;-77
2022/02/02 08:41:47;;;;;;;17.90;3.00;;;;;;;9.36;53.39;100107.72;5035927;27;97420;-76
2022/02/02 08:47:06;;;;;;;17.58;2.10;;;;;;;9.55;51.79;100119.25;6101268;22;100219;-79
2022/02/02 08:53:33;;;;;;;17.45;2.40;;;;;;;9.37;51.16;100124.41;4945810;28;96992;-78
2022/02/02 09:06:59;;;;;;;14.40;2.25;;;;;;;9.87;49.24;100144.28;5100690;22;97979;-82
2022/02/02 09:09:46;;;;;;;16.17;2.13;;;;;;;9.72;49.23;100154.59;4951599;28;100148;-81
2022/02/02 09:37:28;;;;;;;19.48;2.22;;;;;;;9.50;51.32;100217.94;5128748;22;100433;-79
2022/02/02 09:40:21;;;;;;;;;;;;;;;;;;;;;
2022/02/02 09:43:37;;;;;;;;;;;;;;;;;;;;;
2022/02/02 09:46:10;;;;;;;9.15;1.63;;;;;;;9.64;49.94;100231.44;5016750;28;124697;-79
2022/02/02 09:48:46;;;;;;;15.57;2.78;;;;;;;9.95;49.85;100245.13;5016399;28;101406;-79
2022/02/02 09:54:48;;;;;;;16.25;2.25;;;;;;;9.80;49.69;100245.72;5805576;22;99647;-81
2022/02/02 10:01:00;;;;;;;15.13;2.33;;;;;;;9.38;48.90;100247.44;5690604;22;100929;-79
2022/02/02 10:03:51;;;;;;;15.20;2.45;;;;;;;9.41;49.96;100268.38;5023376;28;96893;-78
2022/02/02 10:06:49;;;;;;;9.02;1.92;;;;;;;9.35;49.69;100281.81;5012571;28;96909;-79
2022/02/02 10:32:42;;;;;;;20.17;3.42;;;;;;;9.95;50.71;100319.03;5689717;22;99164;-81
2022/02/02 10:35:38;;;;;;;19.10;2.47;;;;;;;10.28;50.16;100323.91;5031501;28;98268;-80
2022/02/02 10:38:15;;;;;;;14.03;2.50;;;;;;;10.69;49.04;100338.03;5016539;28;96791;-77
2022/02/02 10:40:50;;;;;;;19.15;2.90;;;;;;;10.08;49.12;100342.28;5021852;28;97660;-79
2022/02/02 10:43:30;;;;;;;23.33;2.65;;;;;;;9.95;49.74;100340.13;5018079;28;98031;-80
2022/02/02 10:45:57;;;;;;;19.05;2.95;;;;;;;10.14;48.90;100339.41;5015545;28;97774;-81
2022/02/02 10:51:58;;;;;;;20.88;2.67;;;;;;;10.28;47.87;100348.53;5027551;28;96995;-83
2022/02/02 11:32:17;;;;;;;;;;;;;;;;;;;;;
2022/02/02 11:36:14;;;;;;;;;;;;;;;;;;;;;
2022/02/02 12:03:12;;;;;;;15.40;1.95;;;;;;;9.51;45.81;100464.94;4935307;28;98175;-78
2022/02/02 12:06:12;;;;;;;10.15;1.77;;;;;;;9.98;44.94;100464.06;4942552;28;98123;-80
2022/02/02 12:27:48;;;;;;;11.40;1.60;;;;;;;9.04;48.24;100512.25;4999701;28;97477;-78
2022/02/02 12:44:48;;;;;;;;;;;;;;;;;;;;;
2022/02/02 12:48:07;;;;;;;5.70;1.33;;;;;;;9.69;43.28;100583.00;4979747;28;96960;-78
2022/02/02 12:56:27;;;;;;;4.60;0.75;;;;;;;9.31;43.10;100615.09;4994706;28;97424;-79
2022/02/02 12:59:33;;;;;;;13.45;1.92;;;;;;;8.81;44.14;100633.31;4996272;28;99869;-78
2022/02/02 13:02:14;;;;;;;6.30;1.17;;;;;;;8.98;44.05;100620.50;4998535;28;97550;-79
2022/02/02 13:05:24;;;;;;;6.68;1.10;;;;;;;9.38;43.36;100624.53;5001611;28;97734;-78
2022/02/02 13:08:13;;;;;;;6.45;1.23;;;;;;;9.27;42.73;100642.44;4966286;28;97451;-78
2022/02/02 13:10:40;;;;;;;8.05;1.00;;;;;;;9.18;42.77;100628.66;4974197;28;100105;-78
2022/02/02 13:13:54;;;;;;;8.15;0.95;;;;;;;10.10;41.54;100638.78;5008167;28;98031;-80
2022/02/02 13:16:26;;;;;;;6.57;1.45;;;;;;;10.00;40.65;100641.72;5001096;28;96920;-78
2022/02/02 13:19:12;;;;;;;;;;;;;;;;;;;;;
2022/02/02 13:31:36;;;;;;;8.45;1.42;;;;;;;9.66;41.27;100683.34;5007999;28;96948;-80
2022/02/02 13:34:33;;;;;;;7.85;0.93;;;;;;;9.67;41.36;100700.91;5001844;28;98922;-79
2022/02/02 13:51:01;;;;;;;3.30;0.90;;;;;;;10.66;37.39;100732.75;5015455;28;97840;-81
2022/02/02 13:57:08;;;;;;;3.72;0.90;;;;;;;11.41;36.46;100765.19;5017558;28;98622;-81
2022/02/02 14:32:05;;;;;;;5.47;0.68;;;;;;;11.24;35.75;100861.97;5010357;28;96834;-79
2022/02/02 14:34:32;;;;;;;2.72;0.60;;;;;;;11.27;35.65;100873.31;5012633;28;99734;-80
2022/02/02 14:36:59;;;;;;;3.38;0.60;;;;;;;11.05;36.09;100877.63;5015379;28;101641;-80
2022/02/02 14:39:38;;;;;;;2.20;0.55;;;;;;;10.98;36.15;100898.13;5008740;28;96732;-80
2022/02/02 14:42:36;;;;;;;2.75;0.60;;;;;;;10.88;36.05;100880.00;5014897;28;97271;-80
2022/02/02 14:47:48;;;;;;;2.63;0.55;;;;;;;10.06;37.81;100898.50;5278414;22;99164;-82
2022/02/02 14:50:22;;;;;;;3.80;0.93;;;;;;;10.07;37.64;100905.53;5019129;28;96891;-79
2022/02/02 14:53:07;;;;;;;2.58;0.60;;;;;;;10.38;37.62;100920.41;5015940;28;96767;-81
2022/02/02 14:56:12;;;;;;;2.42;0.68;;;;;;;9.89;38.67;100922.78;5017061;28;98864;-81
2022/02/02 15:05:39;;;;;;;6.80;1.77;;;;;;;10.94;37.39;100938.81;5015136;28;97138;-81
2022/02/02 15:09:33;;;;;;;7.85;1.65;;;;;;;10.30;39.06;100945.34;5019035;28;99666;-81
2022/02/02 15:29:13;;;;;;;7.25;1.35;;;;;;;9.06;46.37;100989.28;5018375;28;97017;-80
2022/02/02 15:31:40;;;;;;;12.13;1.40;;;;;;;9.39;45.73;100991.03;5025450;28;98081;-80
2022/02/02 15:34:12;;;;;;;7.75;1.38;;;;;;;8.99;46.17;100995.63;5023830;28;101743;-80
2022/02/02 16:05:38;;;;;;;12.80;1.77;;;;;;;9.49;44.82;101057.63;5025792;28;97153;-81
2022/02/02 16:08:12;;;;;;;14.68;1.60;;;;;;;9.45;45.30;101066.53;5024891;28;98767;-80
2022/02/02 16:10:58;;;;;;;15.43;1.70;;;;;;;9.51;44.96;101069.88;5030775;28;101654;-82
2022/02/02 16:18:11;;;;;;;8.02;1.30;;;;;;;8.82;46.58;101077.72;5258912;22;99299;-82
2022/02/02 16:48:33;;;;;;;19.25;3.45;;;;;;;9.64;45.72;101139.03;4917457;28;97021;-81
2022/02/02 16:51:24;;;;;;;15.68;3.53;;;;;;;9.19;46.19;101144.50;4915776;28;96919;-80
2022/02/02 17:31:02;;;;;;;21.25;2.90;;;;;;;8.92;47.82;101211.03;5005749;28;96652;-80
2022/02/02 17:33:34;;;;;;;18.23;3.20;;;;;;;8.82;48.17;101209.47;5000998;28;98047;-77
2022/02/02 17:36:14;;;;;;;10.55;2.40;;;;;;;9.57;46.66;101206.03;4996267;28;96795;-78
2022/02/02 17:38:51;;;;;;;15.90;2.83;;;;;;;9.22;47.29;101213.88;5001366;28;97575;-77
2022/02/02 18:01:14;;;;;;;24.10;4.15;;;;;;;8.32;50.17;101248.22;4996519;28;97358;-76
2022/02/02 18:04:00;;;;;;;18.33;3.60;;;;;;;8.50;50.39;101254.91;4996425;28;97602;-75
2022/02/02 18:20:13;;;;;;;24.60;3.38;;;;;;;8.29;52.11;101287.72;4985089;28;96993;-81
2022/02/02 18:22:47;;;;;;;15.43;2.25;;;;;;;7.55;54.23;101297.69;5005451;28;97557;-80
2022/02/02 18:25:21;;;;;;;21.17;2.83;;;;;;;8.24;52.91;101304.50;5007478;28;99102;-80
2022/02/02 18:27:53;;;;;;;13.27;2.25;;;;;;;8.17;53.40;101303.75;5009561;28;97863;-80
2022/02/02 18:30:31;;;;;;;18.00;2.88;;;;;;;8.27;53.30;101302.69;5011193;28;96758;-76
2022/02/02 18:33:12;;;;;;;14.07;3.00;;;;;;;8.01;54.06;101302.25;5008729;28;96737;-80
2022/02/02 18:35:48;;;;;;;16.85;1.50;;;;;;;7.91;54.62;101309.44;4996512;28;98413;-75
2022/02/02 18:44:33;;;;;;;10.30;1.92;;;;;;;7.89;54.32;101312.97;5008356;28;96670;-83
2022/02/02 18:47:13;;;;;;;12.90;2.45;;;;;;;7.98;54.48;101315.47;5017531;28;97602;-83
2022/02/02 18:50:53;;;;;;;14.75;2.25;;;;;;;8.09;53.84;101317.91;5014023;28;96887;-83
2022/02/02 18:53:46;;;;;;;15.93;2.25;;;;;;;7.83;54.50;101328.84;5003504;28;96612;-82
2022/02/02 18:59:13;;;;;;;12.30;1.83;;;;;;;8.27;52.91;101352.69;5012704;28;96766;-82
2022/02/02 19:01:47;;;;;;;12.10;1.85;;;;;;;8.16;53.46;101356.41;5016793;28;100595;-80
2022/02/02 19:08:01;;;;;;;10.02;1.80;;;;;;;8.23;53.10;101365.94;5120863;22;110507;-80
2022/02/02 19:37:39;;;;;;;12.85;1.88;;;;;;;8.09;53.01;101373.19;5000541;28;97180;-82
2022/02/02 19:40:20;;;;;;;11.77;1.80;;;;;;;8.16;53.40;101370.44;5011553;28;97902;-80
2022/02/02 20:04:36;;;;;;;10.82;1.98;;;;;;;8.43;52.26;101397.25;5032784;28;99372;-75
2022/02/02 20:07:11;;;;;;;10.57;1.55;;;;;;;8.93;51.50;101402.50;5030974;28;97175;-76
2022/02/02 20:09:53;;;;;;;10.38;1.92;;;;;;;8.70;51.60;101399.44;5035012;27;98972;-76
2022/02/02 20:12:24;;;;;;;8.68;1.50;;;;;;;8.32;52.82;101403.59;5036184;27;100204;-79
2022/02/02 20:14:50;;;;;;;13.20;1.70;;;;;;;8.17;53.10;101408.16;5034281;27;96935;-75
2022/02/02 20:17:20;;;;;;;11.63;1.98;;;;;;;8.21;53.52;101410.72;5039525;28;96788;-77
2022/02/02 20:19:52;;;;;;;13.23;2.08;;;;;;;8.71;52.03;101411.72;5038799;27;98028;-75
2022/02/02 20:22:21;;;;;;;11.20;1.70;;;;;;;8.35;53.08;101408.78;5038252;28;98830;-76
2022/02/02 20:24:53;;;;;;;9.07;1.58;;;;;;;8.29;52.25;101416.75;5035673;28;97207;-77
2022/02/02 20:27:20;;;;;;;12.40;2.25;;;;;;;8.45;52.60;101404.25;5037083;28;99933;-78
2022/02/02 20:29:46;;;;;;;11.02;1.65;;;;;;;8.47;52.36;101417.41;5035926;28;99068;-79
2022/02/02 20:32:13;;;;;;;17.48;2.35;;;;;;;8.10;52.82;101417.06;5038887;27;99204;-77
2022/02/02 20:34:40;;;;;;;10.65;2.25;;;;;;;8.02;53.85;101425.91;5035740;27;98724;-75
2022/02/02 20:37:08;;;;;;;13.32;2.40;;;;;;;8.27;52.88;101436.97;5036486;27;96904;-77
2022/02/02 20:39:40;;;;;;;8.55;1.85;;;;;;;7.96;53.69;101431.28;5030538;28;98956;-76
2022/02/02 20:42:09;;;;;;;15.95;2.60;;;;;;;8.47;52.36;101427.94;5035261;27;101288;-77
2022/02/02 20:44:53;;;;;;;14.55;2.90;;;;;;;8.11;52.90;101435.47;5027972;27;97045;-76
2022/02/02 21:02:15;;;;;;;15.77;2.55;;;;;;;7.75;53.92;101441.22;5031769;27;97169;-77
2022/02/02 21:04:43;;;;;;;11.50;3.03;;;;;;;7.32;55.00;101439.09;5030815;28;98914;-75
2022/02/02 21:07:27;;;;;;;15.90;2.20;;;;;;;7.61;54.26;101444.03;5027884;27;97804;-74
2022/02/02 21:10:03;;;;;;;14.88;2.22;;;;;;;8.01;53.05;101458.41;5032950;28;97088;-75
2022/02/02 21:15:17;;;;;;;13.20;1.73;;;;;;;8.03;52.74;101468.91;5031628;28;97519;-76
2022/02/02 21:17:44;;;;;;;16.00;2.95;;;;;;;7.61;53.75;101475.59;5035517;27;97726;-76
2022/02/02 21:20:21;;;;;;;14.70;3.13;;;;;;;7.74;53.13;101474.56;5027160;27;98486;-75
2022/02/02 21:22:56;;;;;;;14.32;2.63;;;;;;;7.87;52.88;101484.06;5033295;28;98995;-75
2022/02/02 21:25:36;;;;;;;11.53;1.97;;;;;;;7.86;52.40;101481.44;5033601;28;99023;-74
2022/02/02 21:28:07;;;;;;;13.00;2.13;;;;;;;7.89;52.64;101482.25;5034604;28;96839;-76
2022/02/02 21:30:35;;;;;;;11.02;2.33;;;;;;;7.98;52.20;101489.16;5035542;27;99194;-75
2022/02/02 21:33:02;;;;;;;17.38;2.65;;;;;;;7.50;53.28;101493.25;5046255;28;99377;-75
2022/02/02 21:35:29;;;;;;;12.80;2.20;;;;;;;7.27;53.46;101493.50;5050052;27;97773;-77
2022/02/02 21:38:02;;;;;;;10.50;2.15;;;;;;;7.19;53.87;101496.19;5046639;28;96720;-79
2022/02/02 21:40:30;;;;;;;18.27;2.08;;;;;;;7.73;52.44;101500.88;5049387;27;97258;-76
2022/02/02 21:42:58;;;;;;;11.98;2.13;;;;;;;7.56;52.91;101499.31;5041821;28;99156;-74
2022/02/02 21:45:27;;;;;;;10.82;1.85;;;;;;;7.49;53.24;101513.41;5035321;27;97723;-74
2022/02/02 21:47:53;;;;;;;14.95;2.20;;;;;;;7.31;53.38;101510.97;5036494;27;97227;-77
2022/02/02 21:50:20;;;;;;;19.60;2.25;;;;;;;7.74;52.49;101510.53;5036666;27;96878;-77
2022/02/02 21:52:48;;;;;;;12.98;2.20;;;;;;;7.94;52.31;101506.72;5032953;27;99344;-74
2022/02/02 21:55:16;;;;;;;20.05;2.60;;;;;;;7.59;52.96;101516.81;5033248;27;99089;-74
2022/02/02 21:57:44;;;;;;;18.70;2.45;;;;;;;7.53;52.32;101512.50;5031159;28;97327;-74
2022/02/02 22:00:13;;;;;;;18.27;2.30;;;;;;;7.65;52.53;101505.34;5031079;28;97207;-76
2022/02/02 22:02:39;;;;;;;18.48;2.85;;;;;;;7.73;51.61;101500.88;5033818;27;99008;-75
2022/02/02 22:05:07;;;;;;;11.90;2.25;;;;;;;7.65;52.34;101508.88;5035416;28;98719;-76
2022/02/02 22:07:34;;;;;;;14.15;1.88;;;;;;;7.46;52.76;101508.19;5036041;28;98277;-76
2022/02/02 22:10:04;;;;;;;19.02;3.83;;;;;;;8.03;51.29;101508.38;5030725;27;96953;-75
2022/02/02 22:12:35;;;;;;;11.30;2.50;;;;;;;7.73;52.03;101507.03;5030888;28;99751;-75
2022/02/02 22:15:02;;;;;;;17.42;2.58;;;;;;;7.66;52.15;101518.50;5035807;27;98805;-76
2022/02/02 22:17:28;;;;;;;12.18;2.03;;;;;;;7.93;51.71;101514.69;5035739;27;96797;-77
2022/02/02 22:19:56;;;;;;;14.07;2.20;;;;;;;7.50;52.55;101515.16;5032095;27;97094;-76
2022/02/02 22:22:22;;;;;;;12.02;2.58;;;;;;;7.64;52.15;101511.50;5035159;27;99109;-77
2022/02/02 22:24:49;;;;;;;12.65;2.67;;;;;;;7.66;52.21;101515.88;5030857;27;99103;-76
2022/02/02 22:27:15;;;;;;;29.73;2.72;;;;;;;7.30;52.89;101517.13;5033782;27;97579;-75
2022/02/02 22:29:43;;;;;;;17.90;2.28;;;;;;;7.67;51.87;101516.75;5035212;27;96810;-75
2022/02/02 22:32:09;;;;;;;17.13;2.65;;;;;;;7.54;52.41;101516.00;5033690;27;98975;-75
2022/02/02 22:34:36;;;;;;;16.75;2.20;;;;;;;7.82;51.28;101514.78;5031001;28;99104;-75
2022/02/02 22:37:02;;;;;;;18.48;2.20;;;;;;;7.63;52.22;101517.66;5033323;27;97118;-74
2022/02/02 22:39:29;;;;;;;18.17;3.55;;;;;;;6.98;53.48;101524.44;5035526;28;96823;-77
2022/02/02 22:41:56;;;;;;;16.05;2.55;;;;;;;7.15;53.15;101527.81;5033162;27;99175;-75
2022/02/02 22:44:28;;;;;;;17.13;2.50;;;;;;;7.46;52.54;101526.59;5034217;28;98980;-74
2022/02/02 22:47:03;;;;;;;21.38;2.90;;;;;;;7.75;52.03;101522.75;5033686;28;97222;-76
2022/02/02 22:49:30;;;;;;;19.85;3.17;;;;;;;8.03;51.08;101529.44;5034139;28;96977;-75
2022/02/02 22:51:57;;;;;;;12.20;2.42;;;;;;;8.13;50.62;101532.84;5030584;27;99333;-75
2022/02/02 22:54:23;;;;;;;19.38;4.10;;;;;;;8.12;50.60;101545.13;5031442;28;98378;-73
2022/02/02 22:56:49;;;;;;;18.42;2.72;;;;;;;7.46;52.38;101541.50;5035463;27;97376;-74
2022/02/02 22:59:16;;;;;;;13.18;2.58;;;;;;;7.33;52.96;101546.03;5036056;28;97738;-75
2022/02/02 23:01:44;;;;;;;14.00;3.15;;;;;;;7.46;52.39;101552.91;5035943;28;101351;-75
2022/02/02 23:04:11;;;;;;;17.83;3.28;;;;;;;7.61;52.28;101549.25;5034085;27;99303;-74
2022/02/02 23:06:38;;;;;;;16.30;3.20;;;;;;;6.98;54.00;101545.44;5034621;27;96775;-74
2022/02/02 23:09:06;;;;;;;20.42;2.22;;;;;;;7.56;52.74;101544.03;5035161;27;96756;-74
2022/02/02 23:11:32;;;;;;;14.45;2.50;;;;;;;7.81;52.21;101546.41;5032736;28;98892;-74
2022/02/02 23:14:00;;;;;;;17.92;2.50;;;;;;;7.56;52.62;101548.41;5032080;27;99377;-74
2022/02/02 23:16:31;;;;;;;14.93;2.72;;;;;;;7.58;52.78;101552.78;5034029;27;98197;-74
2022/02/02 23:18:57;;;;;;;12.70;2.75;;;;;;;7.79;51.88;101554.31;5030552;27;96796;-75
2022/02/02 23:21:26;;;;;;;18.15;2.08;;;;;;;8.12;50.96;101547.78;5033082;27;99717;-76
2022/02/02 23:24:01;;;;;;;14.25;2.10;;;;;;;7.40;52.47;101555.59;5035708;28;99015;-76
2022/02/02 23:26:28;;;;;;;19.73;1.83;;;;;;;7.69;51.87;101552.66;5046758;28;96652;-76
2022/02/02 23:28:57;;;;;;;19.67;2.60;;;;;;;7.67;52.09;101548.31;5042221;27;98632;-75
2022/02/02 23:31:25;;;;;;;18.25;2.67;;;;;;;7.76;51.83;101553.44;5035538;27;99457;-76
2022/02/02 23:33:51;;;;;;;16.27;1.90;;;;;;;7.31;52.59;101558.28;5037653;27;99267;-75
2022/02/02 23:36:20;;;;;;;14.02;2.05;;;;;;;7.49;52.51;101555.47;5036843;28;98029;-74
2022/02/02 23:38:48;;;;;;;14.77;1.90;;;;;;;7.36;52.89;101559.13;5045700;27;97283;-76
2022/02/02 23:43:57;;;;;;;13.25;1.85;;;;;;;7.07;53.41;101561.16;5041672;28;97843;-76
2022/02/02 23:46:26;;;;;;;20.08;2.20;;;;;;;7.31;53.04;101566.19;5045546;27;96786;-75
2022/02/02 23:48:59;;;;;;;22.80;2.25;;;;;;;7.33;52.71;101574.94;5043308;28;97835;-74
2022/02/02 23:51:31;;;;;;;12.80;2.20;;;;;;;7.55;52.27;101579.09;5051298;27;98477;-75
2022/02/02 23:54:01;;;;;;;19.67;1.88;;;;;;;7.62;52.13;101572.00;5038619;27;98892;-74
2022/02/02 23:56:40;;;;;;;17.42;2.15;;;;;;;7.45;52.41;101580.09;5040829;27;98293;-75
2022/02/02 23:59:16;;;;;;;19.65;2.35;;;;;;;7.54;52.17;101592.28;5037139;27;97406;-74
